Time;durP1;ratioP1;P1;durP2;ratioP2;P2;SDS_P1;SDS_P2;PMS_P1;PMS_P2;Temp;Humidity;BMP_temperature;BMP_pressure;BME280_temperature;BME280_humidity;BME280_pressure;Samples;Min_cycle;Max_cycle;Signal;HPM_P1;HPM_P2
2022/04/10 00:00:58;;;;;;;34.28;11.90;;;;;;;13.48;44.48;93836.44;5005496;28;20034;-77
2022/04/10 00:03:23;;;;;;;21.98;7.35;;;;;;;13.41;44.00;93829.97;4973234;28;20038;-77
2022/04/10 00:05:49;;;;;;;13.23;6.88;;;;;;;13.36;43.58;93822.19;4956933;28;20034;-76
2022/04/10 00:08:15;;;;;;;11.20;5.95;;;;;;;13.33;43.26;93822.69;4964744;28;20034;-76
2022/04/10 00:10:40;;;;;;;9.68;5.32;;;;;;;13.37;43.35;93823.75;4990438;28;20029;-76
2022/04/10 00:13:06;;;;;;;10.93;4.95;;;;;;;13.36;43.27;93830.00;4972403;28;20030;-77
2022/04/10 00:15:31;;;;;;;20.75;6.65;;;;;;;13.23;44.05;93820.19;4990693;28;20398;-76
2022/04/10 00:17:56;;;;;;;19.80;6.90;;;;;;;13.04;44.75;93815.59;4988759;28;20042;-76
2022/04/10 00:20:22;;;;;;;12.52;6.18;;;;;;;12.93;45.17;93816.69;5002685;28;20084;-76
2022/04/10 00:22:48;;;;;;;17.80;5.95;;;;;;;12.88;45.10;93814.13;4990272;28;20442;-76
2022/04/10 00:25:15;;;;;;;13.90;6.90;;;;;;;12.74;45.48;93823.56;4990406;28;20030;-77
2022/04/10 00:27:40;;;;;;;15.48;5.70;;;;;;;12.62;45.54;93816.06;4965029;28;20038;-77
2022/04/10 00:30:07;;;;;;;12.40;6.10;;;;;;;12.59;45.60;93820.00;4964393;28;20041;-77
2022/04/10 00:32:33;;;;;;;19.10;6.32;;;;;;;12.58;45.30;93821.03;4990575;28;20129;-77
2022/04/10 00:34:58;;;;;;;20.70;6.75;;;;;;;12.55;45.02;93810.38;4989985;28;20093;-76
2022/04/10 00:37:24;;;;;;;15.38;6.53;;;;;;;12.53;44.92;93823.69;4989274;28;20037;-77
2022/04/10 00:39:50;;;;;;;12.77;6.13;;;;;;;12.53;45.13;93823.69;4988629;28;20033;-77
2022/04/10 00:42:15;;;;;;;13.70;6.28;;;;;;;12.53;44.11;93813.25;4990036;28;20045;-77
2022/04/10 00:44:41;;;;;;;11.02;6.07;;;;;;;12.53;44.77;93818.47;4988547;28;20030;-77
2022/04/10 00:47:06;;;;;;;14.82;6.43;;;;;;;12.58;44.77;93815.81;4988706;28;20062;-77
2022/04/10 00:49:32;;;;;;;14.02;5.95;;;;;;;12.63;45.43;93822.84;4980471;28;20474;-77
2022/04/10 00:51:57;;;;;;;18.98;6.30;;;;;;;12.68;45.15;93816.81;4988576;28;20034;-77
2022/04/10 00:54:26;;;;;;;17.00;6.50;;;;;;;12.70;44.69;93792.03;4988546;28;20033;-77
2022/04/10 00:56:52;;;;;;;11.75;5.63;;;;;;;12.66;44.31;93787.59;4989686;28;20108;-77
2022/04/10 00:59:18;;;;;;;11.35;5.82;;;;;;;12.56;44.14;93784.03;4989754;28;20914;-77
2022/04/10 01:01:44;;;;;;;11.50;5.57;;;;;;;12.58;45.97;93788.97;4989694;28;20034;-77
2022/04/10 01:04:11;;;;;;;17.55;5.57;;;;;;;12.57;45.45;93780.38;4988640;28;20027;-77
2022/04/10 01:06:36;;;;;;;16.50;7.07;;;;;;;12.50;44.23;93759.00;4989660;28;20418;-76
2022/04/10 01:09:05;;;;;;;14.05;7.00;;;;;;;12.58;43.83;93762.88;4988385;28;20039;-77
2022/04/10 01:11:30;;;;;;;18.02;6.90;;;;;;;12.69;43.91;93774.03;4988624;28;20100;-76
2022/04/10 01:13:56;;;;;;;16.20;7.55;;;;;;;12.77;44.88;93761.22;5003909;28;20101;-76
2022/04/10 01:16:22;;;;;;;18.05;7.60;;;;;;;12.73;45.00;93762.81;4964182;28;20113;-76
2022/04/10 01:18:47;;;;;;;20.55;6.45;;;;;;;12.75;45.62;93757.31;4988829;28;20045;-77
2022/04/10 01:21:14;;;;;;;15.73;6.65;;;;;;;12.70;45.27;93755.53;4972242;28;20034;-76
2022/04/10 01:23:40;;;;;;;14.45;7.93;;;;;;;12.66;45.02;93764.91;4988662;28;20124;-76
2022/04/10 01:26:06;;;;;;;17.75;7.53;;;;;;;12.68;45.19;93772.47;4964340;28;20018;-76
2022/04/10 01:28:31;;;;;;;23.85;8.32;;;;;;;12.64;45.87;93764.41;4972038;28;20032;-76
2022/04/10 01:31:02;;;;;;;19.65;8.10;;;;;;;12.55;45.88;93766.81;4989304;28;20041;-77
2022/04/10 01:33:27;;;;;;;20.23;6.93;;;;;;;12.55;45.28;93766.81;4971007;28;20031;-77
2022/04/10 01:35:53;;;;;;;14.93;5.85;;;;;;;12.54;44.73;93767.09;4989497;28;20033;-77
2022/04/10 01:38:18;;;;;;;19.15;6.53;;;;;;;12.49;45.25;93774.91;4979380;28;20081;-76
2022/04/10 01:40:43;;;;;;;15.07;6.70;;;;;;;12.39;45.49;93765.34;4971936;28;20042;-77
2022/04/10 01:43:09;;;;;;;9.38;5.68;;;;;;;12.24;45.70;93778.44;4964047;28;20034;-77
2022/04/10 01:45:34;;;;;;;15.50;6.18;;;;;;;12.08;46.10;93789.97;4979844;28;20030;-76
2022/04/10 01:48:06;;;;;;;8.93;4.85;;;;;;;12.01;46.49;93777.19;4971763;28;20046;-76
2022/04/10 01:50:31;;;;;;;16.73;5.10;;;;;;;11.92;46.56;93766.56;4989474;28;20149;-76
2022/04/10 01:53:02;;;;;;;8.13;3.50;;;;;;;11.90;46.13;93765.25;4988014;28;20105;-76
2022/04/10 01:55:28;;;;;;;7.60;3.70;;;;;;;11.91;46.29;93774.63;4972985;28;20510;-76
2022/04/10 01:57:53;;;;;;;8.48;3.55;;;;;;;11.95;46.50;93755.59;4992156;28;20030;-77
2022/04/10 02:00:19;;;;;;;8.15;3.70;;;;;;;11.96;46.19;93767.56;4991028;28;20060;-77
2022/04/10 02:02:44;;;;;;;5.00;4.00;;;;;;;12.01;46.06;93762.34;4966900;28;20037;-77
2022/04/10 02:05:10;;;;;;;7.43;4.40;;;;;;;12.06;45.99;93753.75;4991064;28;20046;-77
2022/04/10 02:07:35;;;;;;;11.50;5.00;;;;;;;12.09;46.29;93752.44;4991691;28;20565;-77
2022/04/10 02:10:07;;;;;;;6.40;3.53;;;;;;;12.10;46.14;93744.34;4992642;28;20150;-77
2022/04/10 02:12:33;;;;;;;7.15;4.20;;;;;;;12.15;46.29;93751.34;4992673;28;20497;-77
2022/04/10 02:14:59;;;;;;;16.80;5.93;;;;;;;12.17;46.62;93757.84;4992571;28;20053;-77
2022/04/10 02:17:36;;;;;;;19.93;5.83;;;;;;;12.16;47.78;93748.47;4992088;28;20513;-77
2022/04/10 02:20:02;;;;;;;15.13;4.95;;;;;;;12.18;46.94;93748.97;4976270;28;20250;-76
2022/04/10 02:22:27;;;;;;;9.32;5.00;;;;;;;12.16;47.38;93761.50;4992302;28;20035;-75
2022/04/10 02:24:53;;;;;;;14.27;5.13;;;;;;;12.13;48.16;93767.25;4992192;28;20505;-77
2022/04/10 02:27:19;;;;;;;14.70;5.78;;;;;;;12.19;47.86;93770.63;4992099;28;20034;-77
2022/04/10 02:29:44;;;;;;;14.55;6.63;;;;;;;12.18;47.09;93769.06;4975752;28;20505;-77
2022/04/10 02:32:10;;;;;;;12.25;5.43;;;;;;;12.25;47.11;93764.34;4993874;28;20026;-77
2022/04/10 02:34:37;;;;;;;7.50;5.18;;;;;;;12.30;47.12;93759.09;5007172;28;20060;-77
2022/04/10 02:37:03;;;;;;;17.65;5.95;;;;;;;12.37;47.37;93759.63;4990959;28;20045;-78
2022/04/10 02:39:28;;;;;;;9.63;5.47;;;;;;;12.39;47.62;93765.34;4991853;28;20041;-77
2022/04/10 02:41:54;;;;;;;18.58;5.70;;;;;;;12.41;46.60;93762.47;4990981;28;20034;-77
2022/04/10 02:44:19;;;;;;;19.60;5.53;;;;;;;12.48;46.78;93761.09;4992167;28;20085;-77
2022/04/10 02:46:44;;;;;;;19.20;5.38;;;;;;;12.52;46.33;93759.50;4992152;28;20037;-77
2022/04/10 02:49:10;;;;;;;10.63;6.07;;;;;;;12.55;46.05;93774.66;5006529;28;20030;-77
2022/04/10 02:51:35;;;;;;;21.33;7.00;;;;;;;12.56;48.07;93776.19;5006820;28;20999;-77
2022/04/10 02:54:01;;;;;;;19.27;5.93;;;;;;;12.59;46.40;93775.66;4990653;28;20038;-77
2022/04/10 02:56:34;;;;;;;15.60;6.93;;;;;;;12.60;46.55;93777.22;4990618;28;20031;-77
2022/04/10 02:59:00;;;;;;;18.90;7.90;;;;;;;12.62;47.94;93788.16;4975971;28;20038;-77
2022/04/10 03:01:25;;;;;;;17.45;7.20;;;;;;;12.64;47.33;93798.31;4991934;28;20038;-77
2022/04/10 03:03:51;;;;;;;9.55;5.85;;;;;;;12.49;47.77;93791.34;4992119;28;20041;-76
2022/04/10 03:06:16;;;;;;;9.88;5.00;;;;;;;12.41;47.49;93793.75;4990511;28;20042;-78
2022/04/10 03:08:42;;;;;;;17.63;6.20;;;;;;;12.40;48.87;93785.16;4991719;28;20034;-78
2022/04/10 03:11:07;;;;;;;13.02;5.45;;;;;;;12.41;48.92;93778.09;4958425;28;20026;-77
2022/04/10 03:13:33;;;;;;;19.50;5.03;;;;;;;12.45;47.33;93773.91;4973019;28;20030;-77
2022/04/10 03:15:58;;;;;;;15.30;5.53;;;;;;;12.48;48.39;93768.91;4991971;28;20402;-77
2022/04/10 03:18:24;;;;;;;22.45;6.88;;;;;;;12.47;49.74;93769.97;4991311;28;20639;-77
2022/04/10 03:20:50;;;;;;;14.43;5.22;;;;;;;12.39;49.89;93783.59;4990178;28;20117;-77
2022/04/10 03:23:15;;;;;;;23.70;6.20;;;;;;;12.46;51.97;93801.53;4993680;28;20081;-77
2022/04/10 03:25:41;;;;;;;13.13;6.00;;;;;;;12.54;52.33;93809.59;4994720;28;20038;-77
2022/04/10 03:28:06;;;;;;;19.38;5.95;;;;;;;12.53;51.61;93818.47;4993512;28;20038;-78
2022/04/10 03:30:31;;;;;;;16.23;5.30;;;;;;;12.57;52.04;93822.09;4991414;28;20038;-78
2022/04/10 03:32:57;;;;;;;15.45;5.25;;;;;;;12.60;51.30;93808.50;4991382;28;20034;-77
2022/04/10 03:35:22;;;;;;;12.15;5.05;;;;;;;12.62;50.20;93800.41;5049860;22;20034;-78
2022/04/10 03:37:48;;;;;;;9.80;4.70;;;;;;;12.59;51.14;93800.97;5000611;28;20049;-77
2022/04/10 03:40:13;;;;;;;10.38;4.50;;;;;;;12.44;51.44;93799.19;5008185;28;20034;-77
2022/04/10 03:42:39;;;;;;;17.33;5.35;;;;;;;12.26;52.38;93802.41;4993178;28;20042;-77
2022/04/10 03:45:07;;;;;;;12.10;4.80;;;;;;;12.07;53.49;93793.59;4993063;28;20458;-77
2022/04/10 03:47:33;;;;;;;8.07;5.20;;;;;;;11.93;53.83;93799.38;4992496;28;20088;-77
2022/04/10 03:49:58;;;;;;;20.95;5.50;;;;;;;11.86;55.11;93796.25;5010668;28;20042;-77
2022/04/10 03:52:24;;;;;;;12.25;7.07;;;;;;;11.82;55.85;93805.63;5010658;28;20040;-77
2022/04/10 03:54:49;;;;;;;15.85;8.13;;;;;;;11.78;56.66;93803.81;4992575;28;20048;-77
2022/04/10 03:57:14;;;;;;;9.63;7.43;;;;;;;11.82;56.96;93815.28;5010312;28;20135;-77
2022/04/10 03:59:40;;;;;;;15.02;7.72;;;;;;;11.85;56.80;93823.34;5010594;28;20043;-77
2022/04/10 04:02:05;;;;;;;11.20;6.70;;;;;;;11.92;56.52;93818.66;4992409;28;20026;-77
2022/04/10 04:04:31;;;;;;;11.52;6.47;;;;;;;12.03;56.93;93829.81;4992566;28;20045;-76
2022/04/10 04:06:56;;;;;;;15.38;6.97;;;;;;;12.03;57.52;93830.59;4976270;28;20497;-76
2022/04/10 04:09:22;;;;;;;19.55;8.00;;;;;;;12.03;56.68;93824.59;4976091;28;20041;-77
2022/04/10 04:11:47;;;;;;;12.63;7.85;;;;;;;12.02;56.91;93844.66;5010403;28;20417;-77
2022/04/10 04:14:13;;;;;;;13.02;9.15;;;;;;;11.98;57.28;93842.88;4992365;28;20497;-77
2022/04/10 04:16:39;;;;;;;10.77;9.68;;;;;;;11.87;57.66;93834.28;4992391;28;20091;-77
2022/04/10 04:19:05;;;;;;;18.13;10.18;;;;;;;11.70;57.83;93855.34;4991787;28;20030;-77
2022/04/10 04:21:30;;;;;;;11.70;10.52;;;;;;;11.59;59.20;93851.22;4976349;28;20033;-77
2022/04/10 04:23:56;;;;;;;18.00;11.68;;;;;;;11.45;58.45;93865.00;4992716;28;20351;-77
2022/04/10 04:26:21;;;;;;;33.97;18.17;;;;;;;11.36;59.08;93844.69;4976394;28;20041;-77
2022/04/10 04:28:47;;;;;;;14.55;12.95;;;;;;;11.20;59.37;93869.13;5009917;28;20052;-77
2022/04/10 04:31:12;;;;;;;18.38;14.35;;;;;;;11.14;59.87;93875.38;4976480;28;20034;-77
2022/04/10 04:33:38;;;;;;;26.45;14.50;;;;;;;10.95;59.81;93882.09;4992627;28;20033;-77
2022/04/10 04:36:04;;;;;;;24.20;15.00;;;;;;;10.74;60.54;93886.47;4992598;28;20041;-77
2022/04/10 04:38:29;;;;;;;24.63;15.63;;;;;;;10.62;61.14;93894.47;5010252;28;20473;-77
2022/04/10 04:40:54;;;;;;;21.10;15.35;;;;;;;10.45;61.51;93901.69;5010024;28;20030;-76
2022/04/10 04:43:21;;;;;;;18.48;16.08;;;;;;;10.38;61.92;93890.72;4975947;28;20042;-77
2022/04/10 04:45:46;;;;;;;20.75;16.80;;;;;;;10.31;62.46;93903.94;4992547;28;20075;-77
2022/04/10 04:48:11;;;;;;;29.73;16.98;;;;;;;10.26;61.78;93916.91;4975497;28;20088;-77
2022/04/10 04:50:37;;;;;;;23.92;17.05;;;;;;;10.19;61.60;93909.28;4975995;28;20088;-76
2022/04/10 04:53:02;;;;;;;20.90;16.60;;;;;;;10.03;62.60;93918.03;4975849;28;20370;-76
2022/04/10 04:55:28;;;;;;;25.55;17.75;;;;;;;10.00;61.92;93918.53;4976497;28;20097;-76
2022/04/10 04:57:53;;;;;;;26.55;18.08;;;;;;;9.80;63.28;93923.59;5009621;28;20040;-76
2022/04/10 05:00:19;;;;;;;23.73;16.75;;;;;;;9.71;63.34;93915.44;4975785;28;20045;-77
2022/04/10 05:02:45;;;;;;;21.70;16.08;;;;;;;9.54;63.67;93925.97;4999998;28;20489;-76
2022/04/10 05:05:10;;;;;;;25.27;18.77;;;;;;;9.40;64.31;93945.53;5009432;28;20025;-76
2022/04/10 05:07:36;;;;;;;25.63;18.92;;;;;;;9.28;65.12;93937.94;5009359;28;20482;-76
2022/04/10 05:10:01;;;;;;;23.15;17.23;;;;;;;9.14;65.63;93930.78;5009397;28;20045;-76
2022/04/10 05:12:27;;;;;;;25.67;17.98;;;;;;;9.06;65.67;93944.16;4989598;28;20033;-76
2022/04/10 05:14:53;;;;;;;23.70;17.63;;;;;;;8.98;66.33;93935.00;4991904;28;20053;-76
2022/04/10 05:17:19;;;;;;;24.40;17.48;;;;;;;8.91;66.53;93953.34;5009696;28;20052;-76
2022/04/10 05:19:44;;;;;;;28.27;19.60;;;;;;;8.90;67.25;93948.38;5009233;28;20036;-76
2022/04/10 05:22:10;;;;;;;30.20;19.13;;;;;;;8.91;67.25;93948.16;5008960;28;20043;-76
2022/04/10 05:24:35;;;;;;;29.55;19.90;;;;;;;8.99;66.68;93950.31;4991396;28;20038;-76
2022/04/10 05:27:00;;;;;;;26.70;17.65;;;;;;;8.87;65.94;93951.47;4991628;28;20042;-76
2022/04/10 05:29:26;;;;;;;31.45;18.65;;;;;;;8.88;66.92;93948.63;4991419;28;20025;-76
2022/04/10 05:31:51;;;;;;;24.95;17.13;;;;;;;8.98;65.47;93942.78;4994364;28;20043;-77
2022/04/10 05:34:17;;;;;;;25.65;17.77;;;;;;;8.85;66.19;93943.16;4978905;28;20034;-76
2022/04/10 05:36:42;;;;;;;26.00;17.13;;;;;;;8.73;65.99;93957.00;5012536;28;20030;-76
2022/04/10 05:39:08;;;;;;;23.98;16.02;;;;;;;8.70;66.15;93951.53;5012224;28;20025;-78
2022/04/10 05:41:33;;;;;;;21.73;16.33;;;;;;;8.67;66.46;93955.41;5012365;28;20022;-76
2022/04/10 05:43:59;;;;;;;25.40;18.38;;;;;;;8.55;66.30;93959.13;5012006;28;20046;-76
2022/04/10 05:46:25;;;;;;;35.58;25.08;;;;;;;8.45;67.21;93964.94;4978141;28;20026;-75
2022/04/10 05:48:51;;;;;;;38.83;27.40;;;;;;;8.48;67.04;93968.88;5011768;28;20040;-76
2022/04/10 05:51:16;;;;;;;23.83;18.52;;;;;;;8.56;66.59;93971.03;4994133;28;20030;-75
2022/04/10 05:53:42;;;;;;;21.85;16.13;;;;;;;8.58;66.44;93966.41;4994736;28;20038;-76
2022/04/10 05:56:07;;;;;;;21.17;16.80;;;;;;;8.62;65.74;93983.03;4979522;28;20100;-77
2022/04/10 05:58:33;;;;;;;21.75;15.77;;;;;;;8.65;66.06;93964.44;4994209;28;20045;-77
2022/04/10 06:00:58;;;;;;;20.08;14.70;;;;;;;8.55;65.39;93974.66;4978307;28;20053;-77
2022/04/10 06:03:23;;;;;;;18.75;14.75;;;;;;;8.53;66.27;93989.66;4994508;28;20030;-77
2022/04/10 06:05:49;;;;;;;24.20;13.85;;;;;;;8.54;65.76;93993.81;4995175;28;20034;-77
2022/04/10 06:08:14;;;;;;;17.00;13.32;;;;;;;8.58;66.14;93989.72;5019701;28;20026;-85
2022/04/10 06:10:40;;;;;;;16.52;11.95;;;;;;;8.57;66.70;93988.16;4979356;28;20036;-84
2022/04/10 06:13:06;;;;;;;14.18;10.93;;;;;;;8.56;65.53;93992.56;4996454;28;20029;-84
2022/04/10 06:15:32;;;;;;;15.73;12.88;;;;;;;8.66;65.74;94007.47;5015110;28;20026;-82
2022/04/10 06:17:58;;;;;;;14.50;11.35;;;;;;;8.66;65.87;94016.03;4993250;28;20034;-83
2022/04/10 06:20:23;;;;;;;12.93;10.00;;;;;;;8.72;65.85;94007.28;5002809;28;20030;-86
2022/04/10 06:22:49;;;;;;;14.35;9.43;;;;;;;8.66;64.99;94007.47;4988436;28;20034;-85
2022/04/10 06:25:14;;;;;;;12.45;10.00;;;;;;;8.64;64.08;94019.88;5017864;28;20038;-78
2022/04/10 06:27:40;;;;;;;22.35;13.23;;;;;;;8.57;64.85;94017.44;4999767;28;20477;-80
2022/04/10 06:30:06;;;;;;;20.63;12.05;;;;;;;8.50;64.44;94003.09;5015901;28;20041;-80
2022/04/10 06:32:31;;;;;;;15.73;12.52;;;;;;;8.58;64.44;94010.47;4982768;28;20042;-82
2022/04/10 06:34:57;;;;;;;10.25;9.20;;;;;;;8.58;64.22;94007.88;4984624;28;20058;-83
2022/04/10 06:37:22;;;;;;;9.65;8.57;;;;;;;8.67;64.25;94009.03;5000647;28;20034;-82
2022/04/10 06:39:47;;;;;;;9.50;7.90;;;;;;;8.62;63.91;94004.56;5015504;28;20038;-80
2022/04/10 06:42:13;;;;;;;11.50;8.70;;;;;;;8.67;63.35;94006.44;5016697;28;20414;-80
2022/04/10 06:44:40;;;;;;;11.40;9.63;;;;;;;8.75;64.20;94000.84;5016867;28;20030;-80
2022/04/10 06:47:06;;;;;;;10.90;8.43;;;;;;;8.84;63.72;93983.06;4998478;28;20041;-80
2022/04/10 06:49:31;;;;;;;10.52;8.00;;;;;;;8.85;61.94;94000.97;4982198;28;20401;-80
2022/04/10 06:51:57;;;;;;;7.78;6.97;;;;;;;8.87;62.61;93993.75;4998746;28;20034;-79
2022/04/10 06:54:23;;;;;;;8.57;6.85;;;;;;;8.85;62.29;94000.97;4998533;28;20417;-82
2022/04/10 06:56:48;;;;;;;7.70;6.32;;;;;;;8.74;62.73;94009.63;5045458;23;20045;-80
2022/04/10 06:59:14;;;;;;;8.45;7.40;;;;;;;8.77;62.74;94003.19;5016117;28;20045;-79
2022/04/10 07:01:39;;;;;;;12.13;7.68;;;;;;;8.87;61.86;94001.50;5014700;28;20026;-82
2022/04/10 07:04:05;;;;;;;6.78;6.03;;;;;;;8.89;61.33;93991.69;4998411;28;20049;-80
2022/04/10 07:06:30;;;;;;;5.72;5.22;;;;;;;8.98;61.16;93992.06;4999568;28;20026;-75
2022/04/10 07:08:57;;;;;;;6.35;5.72;;;;;;;9.00;60.66;94008.94;5010032;28;20404;-74
2022/04/10 07:11:23;;;;;;;7.38;6.25;;;;;;;9.01;59.79;94000.13;5010294;28;20029;-75
2022/04/10 07:13:48;;;;;;;10.02;7.80;;;;;;;8.90;59.90;94006.22;5009540;28;20034;-75
2022/04/10 07:16:14;;;;;;;16.75;9.50;;;;;;;8.79;59.88;94004.53;5010806;28;20042;-75
2022/04/10 07:18:39;;;;;;;14.55;9.52;;;;;;;8.67;60.95;93998.66;5010233;28;20074;-76
2022/04/10 07:21:07;;;;;;;19.67;10.80;;;;;;;8.60;60.74;93998.03;5008594;28;20030;-75
2022/04/10 07:23:46;;;;;;;7.38;5.68;;;;;;;8.48;60.83;93997.38;5008529;28;20030;-74
2022/04/10 07:26:15;;;;;;;4.35;4.05;;;;;;;8.37;61.33;94006.81;5007448;28;20026;-74
2022/04/10 07:28:40;;;;;;;6.32;5.72;;;;;;;8.40;61.41;94009.69;5006026;28;20022;-75
2022/04/10 07:31:09;;;;;;;6.68;5.10;;;;;;;8.50;60.91;94014.25;4990134;28;20030;-75
2022/04/10 07:33:35;;;;;;;11.48;7.15;;;;;;;8.64;60.60;94014.69;4991938;28;20018;-75
2022/04/10 07:36:00;;;;;;;5.07;4.57;;;;;;;8.73;59.71;94010.66;4991791;28;20041;-76
2022/04/10 07:38:26;;;;;;;8.65;6.60;;;;;;;8.76;59.72;94028.31;5007911;28;20456;-76
2022/04/10 07:40:51;;;;;;;8.10;6.57;;;;;;;8.93;58.38;94029.06;5008632;28;20034;-76
2022/04/10 07:43:16;;;;;;;16.52;11.75;;;;;;;9.11;58.27;94019.41;5007652;28;20477;-75
2022/04/10 07:48:26;;;;;;;17.67;6.60;;;;;;;9.56;55.81;94022.53;5008428;28;20053;-76
2022/04/10 07:50:51;;;;;;;5.47;3.70;;;;;;;9.55;55.08;94020.16;5008011;28;20042;-76
2022/04/10 07:53:31;;;;;;;2.83;2.63;;;;;;;9.53;55.45;94023.00;5008784;28;20037;-77
2022/04/10 07:55:57;;;;;;;5.13;4.03;;;;;;;9.58;55.69;94036.03;5007121;28;20461;-76
2022/04/10 07:58:23;;;;;;;5.25;4.20;;;;;;;9.65;55.27;94035.06;5009057;28;20493;-76
2022/04/10 08:00:48;;;;;;;5.55;3.92;;;;;;;9.65;55.80;94029.88;5009633;28;20046;-75
2022/04/10 08:03:14;;;;;;;4.22;3.70;;;;;;;9.53;55.19;94033.41;5009901;28;20080;-76
2022/04/10 08:05:39;;;;;;;5.25;3.65;;;;;;;9.61;54.42;94024.41;4991604;28;20033;-76
2022/04/10 08:08:05;;;;;;;4.45;3.20;;;;;;;9.69;55.60;94039.53;5007878;28;20042;-75
2022/04/10 08:10:30;;;;;;;6.53;5.55;;;;;;;9.80;54.93;94037.81;5009042;28;20103;-76
2022/04/10 08:12:56;;;;;;;14.45;8.20;;;;;;;9.83;53.90;94032.13;5007964;28;20045;-76
2022/04/10 08:15:21;;;;;;;10.32;6.85;;;;;;;9.71;54.29;94028.91;5007513;28;20038;-76
2022/04/10 08:17:47;;;;;;;6.53;5.57;;;;;;;9.67;54.10;94043.41;5007622;28;20128;-76
2022/04/10 08:20:13;;;;;;;5.18;4.50;;;;;;;9.65;54.75;94043.66;5009170;28;20041;-76
2022/04/10 08:22:39;;;;;;;3.63;3.30;;;;;;;9.53;54.16;94058.56;5009268;28;20485;-76
2022/04/10 08:25:09;;;;;;;3.00;2.80;;;;;;;9.43;53.80;94061.81;5009330;28;20180;-76
2022/04/10 08:27:36;;;;;;;5.00;4.50;;;;;;;9.46;54.14;94058.75;5007836;28;20034;-76
2022/04/10 08:30:02;;;;;;;5.50;3.88;;;;;;;9.48;53.20;94063.72;4991389;28;20341;-75
2022/04/10 08:32:34;;;;;;;4.95;4.13;;;;;;;9.48;53.45;94056.72;4991411;28;20036;-75
2022/04/10 08:35:00;;;;;;;;;;;;;;;9.43;53.51;94076.59;5007640;28;20038;-75
2022/04/10 08:37:25;;;;;;;3.75;3.25;;;;;;;9.20;54.11;94085.41;5007694;28;19924;-75
2022/04/10 08:39:51;;;;;;;6.45;5.20;;;;;;;9.11;54.88;94092.84;5007403;28;20042;-75
2022/04/10 08:42:16;;;;;;;5.05;4.35;;;;;;;9.08;54.22;94082.16;5007952;28;20219;-75
2022/04/10 08:44:41;;;;;;;16.10;3.60;;;;;;;8.87;54.65;94086.28;5008569;28;20041;-75
2022/04/10 08:47:07;;;;;;;3.42;2.90;;;;;;;8.67;55.93;94104.94;5007383;28;20037;-75
2022/04/10 08:49:32;;;;;;;6.85;3.55;;;;;;;8.51;56.65;94109.09;5008519;28;20042;-75
2022/04/10 08:51:58;;;;;;;2.58;2.35;;;;;;;8.34;56.80;94113.50;4991254;28;20030;-75
2022/04/10 08:54:25;;;;;;;11.48;10.27;;;;;;;8.22;58.20;94110.94;4991084;28;20036;-75
2022/04/10 08:56:50;;;;;;;12.35;9.15;;;;;;;8.08;58.62;94114.81;5023187;28;20038;-75
2022/04/10 08:59:19;;;;;;;2.42;2.17;;;;;;;7.93;58.92;94127.50;5006915;28;20505;-76
2022/04/10 09:01:45;;;;;;;9.73;7.32;;;;;;;7.76;59.17;94137.81;4991192;28;20460;-75
2022/04/10 09:04:11;;;;;;;9.90;8.02;;;;;;;7.66;59.92;94128.06;5006811;28;20117;-75
2022/04/10 09:06:43;;;;;;;5.75;4.07;;;;;;;7.49;59.87;94137.56;4994544;28;20034;-75
2022/04/10 09:09:16;;;;;;;5.55;5.05;;;;;;;7.37;60.61;94137.59;4994752;28;20493;-75
2022/04/10 09:11:42;;;;;;;16.27;12.00;;;;;;;7.26;60.98;94142.75;5010066;28;20053;-75
2022/04/10 09:14:08;;;;;;;15.27;9.18;;;;;;;7.20;61.68;94150.41;5010703;28;20048;-75
2022/04/10 09:16:33;;;;;;;8.70;6.15;;;;;;;7.13;61.36;94139.41;5012286;28;20104;-77
2022/04/10 09:19:08;;;;;;;16.63;12.43;;;;;;;7.05;61.82;94147.50;5011629;28;20042;-75
2022/04/10 09:21:40;;;;;;;17.27;12.57;;;;;;;7.10;62.11;94145.03;5011891;28;20026;-75
2022/04/10 09:24:08;;;;;;;9.10;6.13;;;;;;;7.05;62.45;94152.69;4994454;28;20046;-75
2022/04/10 09:26:47;;;;;;;17.17;13.85;;;;;;;7.11;62.13;94148.41;5010168;28;20053;-76
2022/04/10 09:29:14;;;;;;;8.85;7.18;;;;;;;7.09;61.26;94138.28;5010021;28;20220;-75
2022/04/10 09:31:39;;;;;;;7.38;5.97;;;;;;;7.10;60.93;94136.47;4994051;28;20025;-75
2022/04/10 09:34:06;;;;;;;12.05;7.72;;;;;;;7.15;60.97;94144.34;5002271;28;20205;-75
2022/04/10 09:36:32;;;;;;;19.60;16.10;;;;;;;7.24;61.66;94137.81;5018702;28;20129;-76
2022/04/10 09:38:58;;;;;;;12.40;8.77;;;;;;;7.32;60.82;94136.66;5010050;28;20042;-75
2022/04/10 09:41:23;;;;;;;7.75;5.55;;;;;;;7.34;61.23;94130.28;4993365;28;20088;-75
2022/04/10 09:43:49;;;;;;;7.13;5.93;;;;;;;7.46;61.61;94138.00;4993888;28;20030;-75
2022/04/10 09:46:14;;;;;;;4.82;4.40;;;;;;;7.67;61.04;94134.81;5010464;28;20030;-75
2022/04/10 09:48:40;;;;;;;4.10;2.78;;;;;;;7.62;60.19;94142.47;5010321;28;20033;-75
2022/04/10 09:51:05;;;;;;;3.17;2.92;;;;;;;7.51;59.71;94156.22;5009708;28;20045;-76
2022/04/10 09:53:32;;;;;;;2.70;2.50;;;;;;;7.52;59.85;94158.59;5010285;28;20040;-76
2022/04/10 09:56:02;;;;;;;2.80;2.60;;;;;;;7.44;60.35;94150.38;5010250;28;20505;-76
2022/04/10 09:58:27;;;;;;;4.70;3.95;;;;;;;7.36;60.83;94161.09;5009097;28;20052;-75
2022/04/10 10:00:54;;;;;;;2.50;2.40;;;;;;;7.33;59.86;94164.13;5010093;28;20045;-76
2022/04/10 10:03:26;;;;;;;4.85;3.42;;;;;;;7.28;60.49;94157.03;5009899;28;20046;-76
2022/04/10 10:05:53;;;;;;;5.63;3.87;;;;;;;7.19;61.96;94161.78;5010051;28;20512;-75
2022/04/10 10:08:18;;;;;;;6.15;3.10;;;;;;;7.17;62.88;94170.78;5009729;28;20038;-75
2022/04/10 10:10:44;;;;;;;7.82;5.82;;;;;;;7.23;62.91;94170.66;4993584;28;20125;-75
2022/04/10 10:13:09;;;;;;;7.18;5.85;;;;;;;7.33;62.49;94164.91;5009682;28;20037;-75
2022/04/10 10:15:35;;;;;;;5.20;4.10;;;;;;;7.27;62.29;94165.03;4993420;28;20030;-75
2022/04/10 10:18:05;;;;;;;9.52;6.68;;;;;;;7.26;62.52;94153.09;5008581;28;20038;-76
2022/04/10 10:20:31;;;;;;;2.58;2.38;;;;;;;7.13;61.79;94160.06;4993863;28;20053;-75
2022/04/10 10:22:58;;;;;;;4.15;3.65;;;;;;;6.96;63.06;94159.19;5009528;28;20084;-75
2022/04/10 10:25:27;;;;;;;17.50;7.15;;;;;;;7.06;64.51;94149.09;5009244;28;20038;-75
2022/04/10 10:28:30;;;;;;;4.45;4.05;;;;;;;7.16;63.61;94133.00;4993306;28;20042;-76
2022/04/10 10:31:14;;;;;;;;;;;;;;;7.22;61.67;94138.06;5011049;28;20065;-75
2022/04/10 10:33:46;;;;;;;3.70;3.22;;;;;;;7.27;62.55;94139.16;5010762;28;19918;-76
2022/04/10 10:36:11;;;;;;;6.25;3.58;;;;;;;7.25;62.67;94141.19;5009375;28;20113;-76
2022/04/10 10:38:37;;;;;;;4.80;4.10;;;;;;;7.30;62.65;94130.94;4992881;28;20037;-76
2022/04/10 10:41:12;;;;;;;8.55;6.60;;;;;;;7.40;63.56;94134.53;5020156;28;20041;-76
2022/04/10 10:43:37;;;;;;;6.40;5.05;;;;;;;7.48;62.09;94141.13;5025522;28;20034;-76
2022/04/10 10:46:03;;;;;;;4.63;4.20;;;;;;;7.45;62.34;94128.66;4993230;28;20044;-76
2022/04/10 10:48:31;;;;;;;8.07;3.35;;;;;;;7.38;61.18;94126.22;5006219;28;20038;-76
2022/04/10 10:51:01;;;;;;;5.60;4.70;;;;;;;7.37;60.96;94127.22;5010552;28;20034;-76
2022/04/10 10:53:55;;;;;;;6.78;5.57;;;;;;;7.33;61.62;94125.34;5009039;28;20412;-76
2022/04/10 10:56:28;;;;;;;7.47;5.32;;;;;;;7.38;61.82;94120.25;5007965;28;20132;-76
2022/04/10 10:58:54;;;;;;;8.77;7.45;;;;;;;7.33;61.72;94122.75;5009217;28;20133;-76
2022/04/10 11:01:26;;;;;;;8.57;5.68;;;;;;;7.22;61.20;94119.16;5008122;28;20543;-76
2022/04/10 11:04:04;;;;;;;7.50;5.30;;;;;;;7.10;62.78;94108.84;5025275;28;20045;-76
2022/04/10 11:06:31;;;;;;;10.50;6.05;;;;;;;7.12;62.33;94106.81;5008435;28;20045;-76
2022/04/10 11:09:28;;;;;;;17.65;11.82;;;;;;;7.19;62.13;94115.25;5008772;28;20473;-76
2022/04/10 11:11:55;;;;;;;14.70;12.48;;;;;;;7.18;61.03;94110.31;5008180;28;20045;-75
2022/04/10 11:14:34;;;;;;;18.92;12.98;;;;;;;7.12;61.37;94101.63;4991888;28;20065;-76
2022/04/10 11:17:19;;;;;;;15.05;9.02;;;;;;;7.07;61.71;94113.69;4991687;28;20038;-76
2022/04/10 11:19:49;;;;;;;9.80;8.23;;;;;;;7.07;61.96;94116.25;4993626;28;20486;-76
2022/04/10 11:22:22;;;;;;;10.98;8.27;;;;;;;7.15;61.98;94121.84;4992811;28;20042;-76
2022/04/10 11:24:52;;;;;;;9.18;7.68;;;;;;;7.22;61.41;94114.00;5008874;28;20048;-77
2022/04/10 11:27:44;;;;;;;11.85;8.07;;;;;;;7.20;61.08;94124.56;4992110;28;20057;-76
2022/04/10 11:30:14;;;;;;;13.07;9.23;;;;;;;7.23;61.39;94123.31;4992009;28;20049;-76
2022/04/10 11:32:45;;;;;;;6.72;6.03;;;;;;;7.27;61.02;94108.13;4993136;28;20030;-75